sensor_id;sensor_type;location;lat;lon;timestamp;P1;durP1;ratioP1;P2;durP2;ratioP2
76548;SDS011;65391;52.068;4.542;2023-05-10T00:00:13;20.7;;;12.5;;
76548;SDS011;65391;52.068;4.542;2023-05-10T00:02:37;20.7;;;12.5;;
76548;SDS011;65391;52.068;4.542;2023-05-10T00:05:02;20.7;;;12.5;;
76548;SDS011;65391;52.068;4.542;2023-05-10T00:07:27;20.7;;;12.5;;
76548;SDS011;65391;52.068;4.542;2023-05-10T00:09:52;20.6;;;12.5;;
76548;SDS011;65391;52.068;4.542;2023-05-10T00:12:17;20.6;;;12.5;;
76548;SDS011;65391;52.068;4.542;2023-05-10T00:14:42;20.6;;;12.5;;
76548;SDS011;65391;52.068;4.542;2023-05-10T00:17:07;20.6;;;12.5;;
76548;SDS011;65391;52.068;4.542;2023-05-10T00:19:32;19.7;;;11.8;;
76548;SDS011;65391;52.068;4.542;2023-05-10T00:21:57;19.7;;;11.8;;
76548;SDS011;65391;52.068;4.542;2023-05-10T00:24:22;19.7;;;11.8;;
76548;SDS011;65391;52.068;4.542;2023-05-10T00:26:47;19.7;;;11.8;;
76548;SDS011;65391;52.068;4.542;2023-05-10T00:29:12;19.7;;;11.8;;
76548;SDS011;65391;52.068;4.542;2023-05-10T00:31:37;22;;;13.9;;
76548;SDS011;65391;52.068;4.542;2023-05-10T00:34:02;22;;;13.9;;
76548;SDS011;65391;52.068;4.542;2023-05-10T00:36:27;22;;;13.9;;
76548;SDS011;65391;52.068;4.542;2023-05-10T00:38:53;22;;;13.9;;
76548;SDS011;65391;52.068;4.542;2023-05-10T00:41:17;22.6;;;14.5;;
76548;SDS011;65391;52.068;4.542;2023-05-10T00:43:42;22.6;;;14.5;;
76548;SDS011;65391;52.068;4.542;2023-05-10T00:46:07;22.6;;;14.5;;
76548;SDS011;65391;52.068;4.542;2023-05-10T00:48:32;22.6;;;14.5;;
76548;SDS011;65391;52.068;4.542;2023-05-10T00:50:57;23.4;;;15.4;;
76548;SDS011;65391;52.068;4.542;2023-05-10T00:53:22;23.4;;;15.4;;
76548;SDS011;65391;52.068;4.542;2023-05-10T00:55:47;23.4;;;15.4;;
76548;SDS011;65391;52.068;4.542;2023-05-10T00:58:12;23.4;;;15.4;;
76548;SDS011;65391;52.068;4.542;2023-05-10T01:00:37;24.4;;;16.7;;
76548;SDS011;65391;52.068;4.542;2023-05-10T01:03:02;24.4;;;16.7;;
76548;SDS011;65391;52.068;4.542;2023-05-10T01:05:27;24.4;;;16.7;;
76548;SDS011;65391;52.068;4.542;2023-05-10T01:07:52;24.4;;;16.7;;
76548;SDS011;65391;52.068;4.542;2023-05-10T01:10:17;24;;;17.8;;
76548;SDS011;65391;52.068;4.542;2023-05-10T01:12:43;24;;;17.8;;
76548;SDS011;65391;52.068;4.542;2023-05-10T01:15:08;24;;;17.8;;
76548;SDS011;65391;52.068;4.542;2023-05-10T01:17:32;24;;;17.8;;
76548;SDS011;65391;52.068;4.542;2023-05-10T01:19:57;88.1;;;19.3;;
76548;SDS011;65391;52.068;4.542;2023-05-10T01:22:35;88.1;;;19.3;;
76548;SDS011;65391;52.068;4.542;2023-05-10T01:25:11;88.1;;;19.3;;
76548;SDS011;65391;52.068;4.542;2023-05-10T01:27:17;88.1;;;19.3;;
76548;SDS011;65391;52.068;4.542;2023-05-10T01:29:48;99.7;;;18.6;;
76548;SDS011;65391;52.068;4.542;2023-05-10T01:32:10;99.7;;;18.6;;
76548;SDS011;65391;52.068;4.542;2023-05-10T01:34:32;99.7;;;18.6;;
76548;SDS011;65391;52.068;4.542;2023-05-10T01:36:55;99.7;;;18.6;;
76548;SDS011;65391;52.068;4.542;2023-05-10T01:39:22;99.7;;;18.6;;
76548;SDS011;65391;52.068;4.542;2023-05-10T01:41:45;79.2;;;18.2;;
76548;SDS011;65391;52.068;4.542;2023-05-10T01:44:11;79.2;;;18.2;;
76548;SDS011;65391;52.068;4.542;2023-05-10T01:46:34;79.2;;;18.2;;
76548;SDS011;65391;52.068;4.542;2023-05-10T01:48:58;79.2;;;18.2;;
76548;SDS011;65391;52.068;4.542;2023-05-10T01:51:23;27.2;;;15.3;;
76548;SDS011;65391;52.068;4.542;2023-05-10T01:53:47;27.2;;;15.3;;
76548;SDS011;65391;52.068;4.542;2023-05-10T01:56:12;27.2;;;15.3;;
76548;SDS011;65391;52.068;4.542;2023-05-10T01:58:37;27.2;;;15.3;;
76548;SDS011;65391;52.068;4.542;2023-05-10T02:01:03;20.4;;;13;;
76548;SDS011;65391;52.068;4.542;2023-05-10T02:03:27;20.4;;;13;;
76548;SDS011;65391;52.068;4.542;2023-05-10T02:05:53;20.4;;;13;;
76548;SDS011;65391;52.068;4.542;2023-05-10T02:08:17;20.4;;;13;;
76548;SDS011;65391;52.068;4.542;2023-05-10T02:10:42;16.1;;;12.6;;
76548;SDS011;65391;52.068;4.542;2023-05-10T02:13:07;16.1;;;12.6;;
76548;SDS011;65391;52.068;4.542;2023-05-10T02:15:33;16.1;;;12.6;;
76548;SDS011;65391;52.068;4.542;2023-05-10T02:17:58;16.1;;;12.6;;
76548;SDS011;65391;52.068;4.542;2023-05-10T02:20:23;21.2;;;14.1;;
76548;SDS011;65391;52.068;4.542;2023-05-10T02:22:48;21.2;;;14.1;;
76548;SDS011;65391;52.068;4.542;2023-05-10T02:25:13;21.2;;;14.1;;
76548;SDS011;65391;52.068;4.542;2023-05-10T02:27:37;21.2;;;14.1;;
76548;SDS011;65391;52.068;4.542;2023-05-10T02:30:03;20.5;;;13;;
76548;SDS011;65391;52.068;4.542;2023-05-10T02:32:27;20.5;;;13;;
76548;SDS011;65391;52.068;4.542;2023-05-10T02:34:52;20.5;;;13;;
76548;SDS011;65391;52.068;4.542;2023-05-10T02:37:18;20.5;;;13;;
76548;SDS011;65391;52.068;4.542;2023-05-10T02:39:42;18.5;;;14.4;;
76548;SDS011;65391;52.068;4.542;2023-05-10T02:42:07;18.5;;;14.4;;
76548;SDS011;65391;52.068;4.542;2023-05-10T02:44:32;18.5;;;14.4;;
76548;SDS011;65391;52.068;4.542;2023-05-10T02:46:57;18.5;;;14.4;;
76548;SDS011;65391;52.068;4.542;2023-05-10T02:49:22;18.5;;;14.4;;
76548;SDS011;65391;52.068;4.542;2023-05-10T02:51:50;20.7;;;13.1;;
76548;SDS011;65391;52.068;4.542;2023-05-10T02:54:15;20.7;;;13.1;;
76548;SDS011;65391;52.068;4.542;2023-05-10T02:56:43;20.7;;;13.1;;
76548;SDS011;65391;52.068;4.542;2023-05-10T02:59:02;20.7;;;13.1;;
76548;SDS011;65391;52.068;4.542;2023-05-10T03:01:27;18;;;14.1;;
76548;SDS011;65391;52.068;4.542;2023-05-10T03:03:52;18;;;14.1;;
76548;SDS011;65391;52.068;4.542;2023-05-10T03:06:17;18;;;14.1;;
76548;SDS011;65391;52.068;4.542;2023-05-10T03:08:43;18;;;14.1;;
76548;SDS011;65391;52.068;4.542;2023-05-10T03:11:16;21.4;;;13.7;;
76548;SDS011;65391;52.068;4.542;2023-05-10T03:13:36;21.4;;;13.7;;
76548;SDS011;65391;52.068;4.542;2023-05-10T03:16:02;21.4;;;13.7;;
76548;SDS011;65391;52.068;4.542;2023-05-10T03:18:26;21.4;;;13.7;;
76548;SDS011;65391;52.068;4.542;2023-05-10T03:20:49;19.5;;;11.4;;
76548;SDS011;65391;52.068;4.542;2023-05-10T03:23:20;19.5;;;11.4;;
76548;SDS011;65391;52.068;4.542;2023-05-10T03:25:38;19.5;;;11.4;;
76548;SDS011;65391;52.068;4.542;2023-05-10T03:28:03;19.5;;;11.4;;
76548;SDS011;65391;52.068;4.542;2023-05-10T03:30:28;21.7;;;14.1;;
76548;SDS011;65391;52.068;4.542;2023-05-10T03:32:53;21.7;;;14.1;;
76548;SDS011;65391;52.068;4.542;2023-05-10T03:35:18;21.7;;;14.1;;
76548;SDS011;65391;52.068;4.542;2023-05-10T03:37:43;21.7;;;14.1;;
76548;SDS011;65391;52.068;4.542;2023-05-10T03:40:08;24;;;16.6;;
76548;SDS011;65391;52.068;4.542;2023-05-10T03:42:33;24;;;16.6;;
76548;SDS011;65391;52.068;4.542;2023-05-10T03:44:58;24;;;16.6;;
76548;SDS011;65391;52.068;4.542;2023-05-10T03:47:23;24;;;16.6;;
76548;SDS011;65391;52.068;4.542;2023-05-10T03:49:48;22.8;;;14.9;;
76548;SDS011;65391;52.068;4.542;2023-05-10T03:52:13;22.8;;;14.9;;
76548;SDS011;65391;52.068;4.542;2023-05-10T03:54:38;22.8;;;14.9;;
76548;SDS011;65391;52.068;4.542;2023-05-10T03:57:03;22.8;;;14.9;;
76548;SDS011;65391;52.068;4.542;2023-05-10T03:59:28;22.8;;;14.9;;
76548;SDS011;65391;52.068;4.542;2023-05-10T04:01:53;26.2;;;18.3;;
76548;SDS011;65391;52.068;4.542;2023-05-10T04:04:18;26.2;;;18.3;;
76548;SDS011;65391;52.068;4.542;2023-05-10T04:06:43;26.2;;;18.3;;
76548;SDS011;65391;52.068;4.542;2023-05-10T04:09:08;26.2;;;18.3;;
76548;SDS011;65391;52.068;4.542;2023-05-10T04:11:33;23.1;;;15.2;;
76548;SDS011;65391;52.068;4.542;2023-05-10T04:13:58;23.1;;;15.2;;
76548;SDS011;65391;52.068;4.542;2023-05-10T04:16:23;23.1;;;15.2;;
76548;SDS011;65391;52.068;4.542;2023-05-10T04:18:48;23.1;;;15.2;;
76548;SDS011;65391;52.068;4.542;2023-05-10T04:21:13;20.1;;;12.4;;
76548;SDS011;65391;52.068;4.542;2023-05-10T04:23:38;20.1;;;12.4;;
76548;SDS011;65391;52.068;4.542;2023-05-10T04:26:03;20.1;;;12.4;;
76548;SDS011;65391;52.068;4.542;2023-05-10T04:28:28;20.1;;;12.4;;
76548;SDS011;65391;52.068;4.542;2023-05-10T04:30:53;21.3;;;13.2;;
76548;SDS011;65391;52.068;4.542;2023-05-10T04:33:18;21.3;;;13.2;;
76548;SDS011;65391;52.068;4.542;2023-05-10T04:35:43;21.3;;;13.2;;
76548;SDS011;65391;52.068;4.542;2023-05-10T04:38:13;21.3;;;13.2;;
76548;SDS011;65391;52.068;4.542;2023-05-10T04:40:33;19.9;;;11.8;;
76548;SDS011;65391;52.068;4.542;2023-05-10T04:42:58;19.9;;;11.8;;
76548;SDS011;65391;52.068;4.542;2023-05-10T04:45:23;19.9;;;11.8;;
76548;SDS011;65391;52.068;4.542;2023-05-10T04:47:48;19.9;;;11.8;;
76548;SDS011;65391;52.068;4.542;2023-05-10T04:50:13;24;;;12.6;;
76548;SDS011;65391;52.068;4.542;2023-05-10T04:52:38;24;;;12.6;;
76548;SDS011;65391;52.068;4.542;2023-05-10T04:55:03;24;;;12.6;;
76548;SDS011;65391;52.068;4.542;2023-05-10T04:57:28;24;;;12.6;;
76548;SDS011;65391;52.068;4.542;2023-05-10T04:59:53;17.5;;;9;;
76548;SDS011;65391;52.068;4.542;2023-05-10T05:02:18;17.5;;;9;;
76548;SDS011;65391;52.068;4.542;2023-05-10T05:04:43;17.5;;;9;;
76548;SDS011;65391;52.068;4.542;2023-05-10T05:07:08;17.5;;;9;;
76548;SDS011;65391;52.068;4.542;2023-05-10T05:09:33;17.5;;;9;;
76548;SDS011;65391;52.068;4.542;2023-05-10T05:11:58;17.7;;;9.7;;
76548;SDS011;65391;52.068;4.542;2023-05-10T05:14:23;17.7;;;9.7;;
76548;SDS011;65391;52.068;4.542;2023-05-10T05:16:48;17.7;;;9.7;;
76548;SDS011;65391;52.068;4.542;2023-05-10T05:19:13;17.7;;;9.7;;
76548;SDS011;65391;52.068;4.542;2023-05-10T05:21:38;18.7;;;10.3;;
76548;SDS011;65391;52.068;4.542;2023-05-10T05:24:03;18.7;;;10.3;;
76548;SDS011;65391;52.068;4.542;2023-05-10T05:26:28;18.7;;;10.3;;
76548;SDS011;65391;52.068;4.542;2023-05-10T05:28:53;18.7;;;10.3;;
76548;SDS011;65391;52.068;4.542;2023-05-10T05:31:18;18.8;;;10.7;;
76548;SDS011;65391;52.068;4.542;2023-05-10T05:33:43;18.8;;;10.7;;
76548;SDS011;65391;52.068;4.542;2023-05-10T05:36:08;18.8;;;10.7;;
76548;SDS011;65391;52.068;4.542;2023-05-10T05:38:33;18.8;;;10.7;;
76548;SDS011;65391;52.068;4.542;2023-05-10T05:40:58;15.1;;;7.2;;
76548;SDS011;65391;52.068;4.542;2023-05-10T05:43:23;15.1;;;7.2;;
76548;SDS011;65391;52.068;4.542;2023-05-10T05:45:48;15.1;;;7.2;;
76548;SDS011;65391;52.068;4.542;2023-05-10T05:48:13;15.1;;;7.2;;
76548;SDS011;65391;52.068;4.542;2023-05-10T05:50:38;15.3;;;7.2;;
76548;SDS011;65391;52.068;4.542;2023-05-10T05:53:03;15.3;;;7.2;;
76548;SDS011;65391;52.068;4.542;2023-05-10T05:55:28;15.3;;;7.2;;
76548;SDS011;65391;52.068;4.542;2023-05-10T05:57:53;15.3;;;7.2;;
76548;SDS011;65391;52.068;4.542;2023-05-10T06:00:18;11.8;;;5.6;;
76548;SDS011;65391;52.068;4.542;2023-05-10T06:02:43;11.8;;;5.6;;
76548;SDS011;65391;52.068;4.542;2023-05-10T06:05:08;11.8;;;5.6;;
76548;SDS011;65391;52.068;4.542;2023-05-10T06:07:33;11.8;;;5.6;;
76548;SDS011;65391;52.068;4.542;2023-05-10T06:09:58;11.6;;;5.8;;
76548;SDS011;65391;52.068;4.542;2023-05-10T06:12:23;11.6;;;5.8;;
76548;SDS011;65391;52.068;4.542;2023-05-10T06:14:48;11.6;;;5.8;;
76548;SDS011;65391;52.068;4.542;2023-05-10T06:17:13;11.6;;;5.8;;
76548;SDS011;65391;52.068;4.542;2023-05-10T06:19:38;11.6;;;5.8;;
76548;SDS011;65391;52.068;4.542;2023-05-10T06:22:03;11.3;;;5.8;;
76548;SDS011;65391;52.068;4.542;2023-05-10T06:24:28;11.3;;;5.8;;
76548;SDS011;65391;52.068;4.542;2023-05-10T06:26:53;11.3;;;5.8;;
76548;SDS011;65391;52.068;4.542;2023-05-10T06:29:18;11.3;;;5.8;;
76548;SDS011;65391;52.068;4.542;2023-05-10T06:31:43;12;;;5.3;;
76548;SDS011;65391;52.068;4.542;2023-05-10T06:34:08;12;;;5.3;;
76548;SDS011;65391;52.068;4.542;2023-05-10T06:36:33;12;;;5.3;;
76548;SDS011;65391;52.068;4.542;2023-05-10T06:38:58;12;;;5.3;;
76548;SDS011;65391;52.068;4.542;2023-05-10T06:41:23;8.6;;;4.7;;
76548;SDS011;65391;52.068;4.542;2023-05-10T06:43:48;8.6;;;4.7;;
76548;SDS011;65391;52.068;4.542;2023-05-10T06:46:13;8.6;;;4.7;;
76548;SDS011;65391;52.068;4.542;2023-05-10T06:48:38;8.6;;;4.7;;
76548;SDS011;65391;52.068;4.542;2023-05-10T06:51:03;7.4;;;3.9;;
76548;SDS011;65391;52.068;4.542;2023-05-10T06:53:28;7.4;;;3.9;;
76548;SDS011;65391;52.068;4.542;2023-05-10T06:55:53;7.4;;;3.9;;
76548;SDS011;65391;52.068;4.542;2023-05-10T06:58:18;7.4;;;3.9;;
76548;SDS011;65391;52.068;4.542;2023-05-10T07:00:43;6.6;;;3.7;;
76548;SDS011;65391;52.068;4.542;2023-05-10T07:03:08;6.6;;;3.7;;
76548;SDS011;65391;52.068;4.542;2023-05-10T07:05:33;6.6;;;3.7;;
76548;SDS011;65391;52.068;4.542;2023-05-10T07:07:58;6.6;;;3.7;;
76548;SDS011;65391;52.068;4.542;2023-05-10T07:10:23;6.5;;;3.7;;
76548;SDS011;65391;52.068;4.542;2023-05-10T07:12:48;6.5;;;3.7;;
76548;SDS011;65391;52.068;4.542;2023-05-10T07:15:13;6.5;;;3.7;;
76548;SDS011;65391;52.068;4.542;2023-05-10T07:17:38;6.5;;;3.7;;
76548;SDS011;65391;52.068;4.542;2023-05-10T07:20:04;7.5;;;4.6;;
76548;SDS011;65391;52.068;4.542;2023-05-10T07:22:28;7.5;;;4.6;;
76548;SDS011;65391;52.068;4.542;2023-05-10T07:24:53;7.5;;;4.6;;
76548;SDS011;65391;52.068;4.542;2023-05-10T07:27:18;7.5;;;4.6;;
76548;SDS011;65391;52.068;4.542;2023-05-10T07:29:43;7.5;;;4.6;;
76548;SDS011;65391;52.068;4.542;2023-05-10T07:32:08;8.7;;;4.3;;
76548;SDS011;65391;52.068;4.542;2023-05-10T07:34:33;8.7;;;4.3;;
76548;SDS011;65391;52.068;4.542;2023-05-10T07:36:58;8.7;;;4.3;;
76548;SDS011;65391;52.068;4.542;2023-05-10T07:39:23;8.7;;;4.3;;
76548;SDS011;65391;52.068;4.542;2023-05-10T07:41:48;8.2;;;4.9;;
76548;SDS011;65391;52.068;4.542;2023-05-10T07:44:13;8.2;;;4.9;;
76548;SDS011;65391;52.068;4.542;2023-05-10T07:46:38;8.2;;;4.9;;
76548;SDS011;65391;52.068;4.542;2023-05-10T07:49:03;8.2;;;4.9;;
76548;SDS011;65391;52.068;4.542;2023-05-10T07:51:28;10.8;;;4.4;;
76548;SDS011;65391;52.068;4.542;2023-05-10T07:53:53;10.8;;;4.4;;
76548;SDS011;65391;52.068;4.542;2023-05-10T07:56:21;10.8;;;4.4;;
76548;SDS011;65391;52.068;4.542;2023-05-10T07:58:43;10.8;;;4.4;;
76548;SDS011;65391;52.068;4.542;2023-05-10T08:01:08;8.5;;;4;;
76548;SDS011;65391;52.068;4.542;2023-05-10T08:03:33;8.5;;;4;;
76548;SDS011;65391;52.068;4.542;2023-05-10T08:05:58;8.5;;;4;;
76548;SDS011;65391;52.068;4.542;2023-05-10T08:08:23;8.5;;;4;;
76548;SDS011;65391;52.068;4.542;2023-05-10T08:10:49;8.5;;;3.6;;
76548;SDS011;65391;52.068;4.542;2023-05-10T08:13:13;8.5;;;3.6;;
76548;SDS011;65391;52.068;4.542;2023-05-10T08:15:38;8.5;;;3.6;;
76548;SDS011;65391;52.068;4.542;2023-05-10T08:18:03;8.5;;;3.6;;
76548;SDS011;65391;52.068;4.542;2023-05-10T08:20:28;9.5;;;4.3;;
76548;SDS011;65391;52.068;4.542;2023-05-10T08:22:53;9.5;;;4.3;;
76548;SDS011;65391;52.068;4.542;2023-05-10T08:25:18;9.5;;;4.3;;
76548;SDS011;65391;52.068;4.542;2023-05-10T08:27:43;9.5;;;4.3;;
76548;SDS011;65391;52.068;4.542;2023-05-10T08:30:09;6.1;;;3.7;;
76548;SDS011;65391;52.068;4.542;2023-05-10T08:32:33;6.1;;;3.7;;
76548;SDS011;65391;52.068;4.542;2023-05-10T08:34:58;6.1;;;3.7;;
76548;SDS011;65391;52.068;4.542;2023-05-10T08:37:23;6.1;;;3.7;;
76548;SDS011;65391;52.068;4.542;2023-05-10T08:39:48;6.1;;;3.7;;
76548;SDS011;65391;52.068;4.542;2023-05-10T08:42:13;5.8;;;3;;
76548;SDS011;65391;52.068;4.542;2023-05-10T08:44:38;5.8;;;3;;
76548;SDS011;65391;52.068;4.542;2023-05-10T08:47:05;5.8;;;3;;
76548;SDS011;65391;52.068;4.542;2023-05-10T08:49:28;5.8;;;3;;
76548;SDS011;65391;52.068;4.542;2023-05-10T08:51:54;4.7;;;3;;
76548;SDS011;65391;52.068;4.542;2023-05-10T08:54:18;4.7;;;3;;
76548;SDS011;65391;52.068;4.542;2023-05-10T08:56:43;4.7;;;3;;
76548;SDS011;65391;52.068;4.542;2023-05-10T08:59:08;4.7;;;3;;
76548;SDS011;65391;52.068;4.542;2023-05-10T09:01:33;10;;;3.7;;
76548;SDS011;65391;52.068;4.542;2023-05-10T09:03:58;10;;;3.7;;
76548;SDS011;65391;52.068;4.542;2023-05-10T09:06:23;10;;;3.7;;
76548;SDS011;65391;52.068;4.542;2023-05-10T09:08:48;10;;;3.7;;
76548;SDS011;65391;52.068;4.542;2023-05-10T09:11:13;5.2;;;3.1;;
76548;SDS011;65391;52.068;4.542;2023-05-10T09:13:38;5.2;;;3.1;;
76548;SDS011;65391;52.068;4.542;2023-05-10T09:16:04;5.2;;;3.1;;
76548;SDS011;65391;52.068;4.542;2023-05-10T09:18:28;5.2;;;3.1;;
76548;SDS011;65391;52.068;4.542;2023-05-10T09:20:54;4.4;;;2.9;;
76548;SDS011;65391;52.068;4.542;2023-05-10T09:23:18;4.4;;;2.9;;
76548;SDS011;65391;52.068;4.542;2023-05-10T09:25:43;4.4;;;2.9;;
76548;SDS011;65391;52.068;4.542;2023-05-10T09:28:09;4.4;;;2.9;;
76548;SDS011;65391;52.068;4.542;2023-05-10T09:30:33;7.2;;;4.1;;
76548;SDS011;65391;52.068;4.542;2023-05-10T09:32:59;7.2;;;4.1;;
76548;SDS011;65391;52.068;4.542;2023-05-10T09:35:25;7.2;;;4.1;;
76548;SDS011;65391;52.068;4.542;2023-05-10T09:37:49;7.2;;;4.1;;
76548;SDS011;65391;52.068;4.542;2023-05-10T09:40:14;9.7;;;5.1;;
76548;SDS011;65391;52.068;4.542;2023-05-10T09:42:39;9.7;;;5.1;;
76548;SDS011;65391;52.068;4.542;2023-05-10T09:45:04;9.7;;;5.1;;
76548;SDS011;65391;52.068;4.542;2023-05-10T09:47:28;9.7;;;5.1;;
76548;SDS011;65391;52.068;4.542;2023-05-10T09:49:53;9.7;;;5.1;;
76548;SDS011;65391;52.068;4.542;2023-05-10T09:52:18;8.9;;;5.2;;
76548;SDS011;65391;52.068;4.542;2023-05-10T09:54:45;8.9;;;5.2;;
76548;SDS011;65391;52.068;4.542;2023-05-10T09:57:11;8.9;;;5.2;;
76548;SDS011;65391;52.068;4.542;2023-05-10T09:59:34;8.9;;;5.2;;
76548;SDS011;65391;52.068;4.542;2023-05-10T10:01:59;10.2;;;5.5;;
76548;SDS011;65391;52.068;4.542;2023-05-10T10:04:23;10.2;;;5.5;;
76548;SDS011;65391;52.068;4.542;2023-05-10T10:06:58;10.2;;;5.5;;
76548;SDS011;65391;52.068;4.542;2023-05-10T10:09:13;10.2;;;5.5;;
76548;SDS011;65391;52.068;4.542;2023-05-10T10:11:38;11.9;;;4.1;;
76548;SDS011;65391;52.068;4.542;2023-05-10T10:14:04;11.9;;;4.1;;
76548;SDS011;65391;52.068;4.542;2023-05-10T10:16:29;11.9;;;4.1;;
76548;SDS011;65391;52.068;4.542;2023-05-10T10:18:53;11.9;;;4.1;;
76548;SDS011;65391;52.068;4.542;2023-05-10T10:21:18;10.3;;;6.5;;
76548;SDS011;65391;52.068;4.542;2023-05-10T10:23:44;10.3;;;6.5;;
76548;SDS011;65391;52.068;4.542;2023-05-10T10:26:08;10.3;;;6.5;;
76548;SDS011;65391;52.068;4.542;2023-05-10T10:28:38;10.3;;;6.5;;
76548;SDS011;65391;52.068;4.542;2023-05-10T10:31:00;13.8;;;7;;
76548;SDS011;65391;52.068;4.542;2023-05-10T10:33:33;13.8;;;7;;
76548;SDS011;65391;52.068;4.542;2023-05-10T10:35:48;13.8;;;7;;
76548;SDS011;65391;52.068;4.542;2023-05-10T10:38:13;13.8;;;7;;
76548;SDS011;65391;52.068;4.542;2023-05-10T10:40:39;10.6;;;6.1;;
76548;SDS011;65391;52.068;4.542;2023-05-10T10:43:21;10.6;;;6.1;;
76548;SDS011;65391;52.068;4.542;2023-05-10T10:45:28;10.6;;;6.1;;
76548;SDS011;65391;52.068;4.542;2023-05-10T10:48:20;10.6;;;6.1;;
76548;SDS011;65391;52.068;4.542;2023-05-10T10:50:19;12.6;;;7;;
76548;SDS011;65391;52.068;4.542;2023-05-10T10:52:44;12.6;;;7;;
76548;SDS011;65391;52.068;4.542;2023-05-10T10:55:09;12.6;;;7;;
76548;SDS011;65391;52.068;4.542;2023-05-10T10:57:42;12.6;;;7;;
76548;SDS011;65391;52.068;4.542;2023-05-10T11:00:31;12.6;;;7;;
76548;SDS011;65391;52.068;4.542;2023-05-10T11:02:57;11.7;;;6.3;;
76548;SDS011;65391;52.068;4.542;2023-05-10T11:04:48;11.7;;;6.3;;
76548;SDS011;65391;52.068;4.542;2023-05-10T11:07:17;11.7;;;6.3;;
76548;SDS011;65391;52.068;4.542;2023-05-10T11:09:39;11.7;;;6.3;;
76548;SDS011;65391;52.068;4.542;2023-05-10T11:12:07;17.1;;;8.3;;
76548;SDS011;65391;52.068;4.542;2023-05-10T11:14:29;17.1;;;8.3;;
76548;SDS011;65391;52.068;4.542;2023-05-10T11:16:54;17.1;;;8.3;;
76548;SDS011;65391;52.068;4.542;2023-05-10T11:19:19;17.1;;;8.3;;
76548;SDS011;65391;52.068;4.542;2023-05-10T11:21:45;14.1;;;7.8;;
76548;SDS011;65391;52.068;4.542;2023-05-10T11:24:13;14.1;;;7.8;;
76548;SDS011;65391;52.068;4.542;2023-05-10T11:26:35;14.1;;;7.8;;
76548;SDS011;65391;52.068;4.542;2023-05-10T11:28:59;14.1;;;7.8;;
76548;SDS011;65391;52.068;4.542;2023-05-10T11:31:24;13.1;;;7.5;;
76548;SDS011;65391;52.068;4.542;2023-05-10T11:33:50;13.1;;;7.5;;
76548;SDS011;65391;52.068;4.542;2023-05-10T11:36:14;13.1;;;7.5;;
76548;SDS011;65391;52.068;4.542;2023-05-10T11:38:39;13.1;;;7.5;;
76548;SDS011;65391;52.068;4.542;2023-05-10T11:41:04;13.3;;;7.3;;
76548;SDS011;65391;52.068;4.542;2023-05-10T11:43:29;13.3;;;7.3;;
76548;SDS011;65391;52.068;4.542;2023-05-10T11:45:54;13.3;;;7.3;;
76548;SDS011;65391;52.068;4.542;2023-05-10T11:48:19;13.3;;;7.3;;
76548;SDS011;65391;52.068;4.542;2023-05-10T11:50:44;19.3;;;9.2;;
76548;SDS011;65391;52.068;4.542;2023-05-10T11:53:09;19.3;;;9.2;;
76548;SDS011;65391;52.068;4.542;2023-05-10T11:55:34;19.3;;;9.2;;
76548;SDS011;65391;52.068;4.542;2023-05-10T11:58:00;19.3;;;9.2;;
76548;SDS011;65391;52.068;4.542;2023-05-10T12:00:24;13.9;;;7.4;;
76548;SDS011;65391;52.068;4.542;2023-05-10T12:02:49;13.9;;;7.4;;
76548;SDS011;65391;52.068;4.542;2023-05-10T12:05:14;13.9;;;7.4;;
76548;SDS011;65391;52.068;4.542;2023-05-10T12:07:39;13.9;;;7.4;;
76548;SDS011;65391;52.068;4.542;2023-05-10T12:10:06;13.9;;;7.4;;
76548;SDS011;65391;52.068;4.542;2023-05-10T12:12:35;10;;;6.6;;
76548;SDS011;65391;52.068;4.542;2023-05-10T12:14:54;10;;;6.6;;
76548;SDS011;65391;52.068;4.542;2023-05-10T12:17:19;10;;;6.6;;
76548;SDS011;65391;52.068;4.542;2023-05-10T12:19:44;10;;;6.6;;
76548;SDS011;65391;52.068;4.542;2023-05-10T12:22:09;11.9;;;6.4;;
76548;SDS011;65391;52.068;4.542;2023-05-10T12:24:34;11.9;;;6.4;;
76548;SDS011;65391;52.068;4.542;2023-05-10T12:26:59;11.9;;;6.4;;
76548;SDS011;65391;52.068;4.542;2023-05-10T12:29:24;11.9;;;6.4;;
76548;SDS011;65391;52.068;4.542;2023-05-10T12:31:52;10;;;6.4;;
76548;SDS011;65391;52.068;4.542;2023-05-10T12:34:22;10;;;6.4;;
76548;SDS011;65391;52.068;4.542;2023-05-10T12:36:39;10;;;6.4;;
76548;SDS011;65391;52.068;4.542;2023-05-10T12:39:04;10;;;6.4;;
76548;SDS011;65391;52.068;4.542;2023-05-10T12:41:29;11.7;;;6.7;;
76548;SDS011;65391;52.068;4.542;2023-05-10T12:43:54;11.7;;;6.7;;
76548;SDS011;65391;52.068;4.542;2023-05-10T12:46:19;11.7;;;6.7;;
76548;SDS011;65391;52.068;4.542;2023-05-10T12:48:44;11.7;;;6.7;;
76548;SDS011;65391;52.068;4.542;2023-05-10T12:51:09;11.3;;;6.1;;
76548;SDS011;65391;52.068;4.542;2023-05-10T12:53:34;11.3;;;6.1;;
76548;SDS011;65391;52.068;4.542;2023-05-10T12:55:59;11.3;;;6.1;;
76548;SDS011;65391;52.068;4.542;2023-05-10T12:58:24;11.3;;;6.1;;
76548;SDS011;65391;52.068;4.542;2023-05-10T13:00:49;8.7;;;6;;
76548;SDS011;65391;52.068;4.542;2023-05-10T13:03:14;8.7;;;6;;
76548;SDS011;65391;52.068;4.542;2023-05-10T13:05:39;8.7;;;6;;
76548;SDS011;65391;52.068;4.542;2023-05-10T13:08:04;8.7;;;6;;
76548;SDS011;65391;52.068;4.542;2023-05-10T13:10:29;12.4;;;7;;
76548;SDS011;65391;52.068;4.542;2023-05-10T13:12:54;12.4;;;7;;
76548;SDS011;65391;52.068;4.542;2023-05-10T13:15:19;12.4;;;7;;
76548;SDS011;65391;52.068;4.542;2023-05-10T13:17:44;12.4;;;7;;
76548;SDS011;65391;52.068;4.542;2023-05-10T13:20:09;12.4;;;7;;
76548;SDS011;65391;52.068;4.542;2023-05-10T13:22:34;11.1;;;5.9;;
76548;SDS011;65391;52.068;4.542;2023-05-10T13:24:59;11.1;;;5.9;;
76548;SDS011;65391;52.068;4.542;2023-05-10T13:27:24;11.1;;;5.9;;
76548;SDS011;65391;52.068;4.542;2023-05-10T13:29:49;11.1;;;5.9;;
76548;SDS011;65391;52.068;4.542;2023-05-10T13:32:14;8.4;;;5.4;;
76548;SDS011;65391;52.068;4.542;2023-05-10T13:34:39;8.4;;;5.4;;
76548;SDS011;65391;52.068;4.542;2023-05-10T13:37:04;8.4;;;5.4;;
76548;SDS011;65391;52.068;4.542;2023-05-10T13:39:29;8.4;;;5.4;;
76548;SDS011;65391;52.068;4.542;2023-05-10T13:41:54;8.4;;;4.2;;
76548;SDS011;65391;52.068;4.542;2023-05-10T13:44:19;8.4;;;4.2;;
76548;SDS011;65391;52.068;4.542;2023-05-10T13:46:44;8.4;;;4.2;;
76548;SDS011;65391;52.068;4.542;2023-05-10T13:49:09;8.4;;;4.2;;
76548;SDS011;65391;52.068;4.542;2023-05-10T13:51:34;7.9;;;3.7;;
76548;SDS011;65391;52.068;4.542;2023-05-10T13:53:59;7.9;;;3.7;;
76548;SDS011;65391;52.068;4.542;2023-05-10T13:56:24;7.9;;;3.7;;
76548;SDS011;65391;52.068;4.542;2023-05-10T13:58:49;7.9;;;3.7;;
76548;SDS011;65391;52.068;4.542;2023-05-10T14:01:14;5.4;;;3.6;;
76548;SDS011;65391;52.068;4.542;2023-05-10T14:03:39;5.4;;;3.6;;
76548;SDS011;65391;52.068;4.542;2023-05-10T14:06:04;5.4;;;3.6;;
76548;SDS011;65391;52.068;4.542;2023-05-10T14:08:29;5.4;;;3.6;;
76548;SDS011;65391;52.068;4.542;2023-05-10T14:10:54;5.2;;;3.7;;
76548;SDS011;65391;52.068;4.542;2023-05-10T14:13:19;5.2;;;3.7;;
76548;SDS011;65391;52.068;4.542;2023-05-10T14:15:44;5.2;;;3.7;;
76548;SDS011;65391;52.068;4.542;2023-05-10T14:18:09;5.2;;;3.7;;
76548;SDS011;65391;52.068;4.542;2023-05-10T14:20:34;5.2;;;3.7;;
76548;SDS011;65391;52.068;4.542;2023-05-10T14:22:59;4.7;;;3.2;;
76548;SDS011;65391;52.068;4.542;2023-05-10T14:25:24;4.7;;;3.2;;
76548;SDS011;65391;52.068;4.542;2023-05-10T14:27:49;4.7;;;3.2;;
76548;SDS011;65391;52.068;4.542;2023-05-10T14:30:14;4.7;;;3.2;;
76548;SDS011;65391;52.068;4.542;2023-05-10T14:32:39;6.4;;;3.4;;
76548;SDS011;65391;52.068;4.542;2023-05-10T14:35:05;6.4;;;3.4;;
76548;SDS011;65391;52.068;4.542;2023-05-10T14:37:29;6.4;;;3.4;;
76548;SDS011;65391;52.068;4.542;2023-05-10T14:39:54;6.4;;;3.4;;
76548;SDS011;65391;52.068;4.542;2023-05-10T14:42:19;5.5;;;3.2;;
76548;SDS011;65391;52.068;4.542;2023-05-10T14:44:44;5.5;;;3.2;;
76548;SDS011;65391;52.068;4.542;2023-05-10T14:47:09;5.5;;;3.2;;
76548;SDS011;65391;52.068;4.542;2023-05-10T14:49:34;5.5;;;3.2;;
76548;SDS011;65391;52.068;4.542;2023-05-10T14:51:59;6.4;;;4.3;;